sensor_id;sensor_type;location;lat;lon;timestamp;temperature;humidity
29775;DHT22;16676;51.202;6.774;2022-09-30T00:02:04;20.20;57.80
29775;DHT22;16676;51.202;6.774;2022-09-30T00:06:06;20.20;57.90
29775;DHT22;16676;51.202;6.774;2022-09-30T00:10:08;20.10;57.90
29775;DHT22;16676;51.202;6.774;2022-09-30T00:14:15;20.10;57.90
29775;DHT22;16676;51.202;6.774;2022-09-30T00:18:17;20.10;58.00
29775;DHT22;16676;51.202;6.774;2022-09-30T00:22:19;20.10;57.90
29775;DHT22;16676;51.202;6.774;2022-09-30T00:26:23;20.10;58.00
29775;DHT22;16676;51.202;6.774;2022-09-30T00:30:26;20.10;58.00
29775;DHT22;16676;51.202;6.774;2022-09-30T00:34:28;20.10;58.00
29775;DHT22;16676;51.202;6.774;2022-09-30T00:38:30;20.10;57.90
29775;DHT22;16676;51.202;6.774;2022-09-30T00:42:32;20.10;58.00
29775;DHT22;16676;51.202;6.774;2022-09-30T00:46:38;20.10;57.90
29775;DHT22;16676;51.202;6.774;2022-09-30T00:50:41;20.00;57.90
29775;DHT22;16676;51.202;6.774;2022-09-30T00:54:46;20.10;57.90
29775;DHT22;16676;51.202;6.774;2022-09-30T00:58:51;20.00;57.90
29775;DHT22;16676;51.202;6.774;2022-09-30T01:02:55;20.00;57.80
29775;DHT22;16676;51.202;6.774;2022-09-30T01:06:58;20.00;57.90
29775;DHT22;16676;51.202;6.774;2022-09-30T01:11:01;20.00;57.80
29775;DHT22;16676;51.202;6.774;2022-09-30T01:15:04;20.00;57.90
29775;DHT22;16676;51.202;6.774;2022-09-30T01:23:50;19.90;57.80
29775;DHT22;16676;51.202;6.774;2022-09-30T01:32:44;20.00;58.00
29775;DHT22;16676;51.202;6.774;2022-09-30T01:37:02;19.90;57.90
29775;DHT22;16676;51.202;6.774;2022-09-30T01:41:09;20.00;58.00
29775;DHT22;16676;51.202;6.774;2022-09-30T01:45:16;19.90;57.90
29775;DHT22;16676;51.202;6.774;2022-09-30T01:49:26;19.90;57.90
29775;DHT22;16676;51.202;6.774;2022-09-30T01:53:38;19.90;57.90
29775;DHT22;16676;51.202;6.774;2022-09-30T01:57:45;19.90;58.00
29775;DHT22;16676;51.202;6.774;2022-09-30T02:01:54;19.90;57.90
29775;DHT22;16676;51.202;6.774;2022-09-30T02:06:03;19.90;58.00
29775;DHT22;16676;51.202;6.774;2022-09-30T02:10:09;19.90;58.00
29775;DHT22;16676;51.202;6.774;2022-09-30T02:14:15;19.90;57.90
29775;DHT22;16676;51.202;6.774;2022-09-30T02:18:23;19.90;58.00
29775;DHT22;16676;51.202;6.774;2022-09-30T02:22:30;19.90;57.90
29775;DHT22;16676;51.202;6.774;2022-09-30T02:26:42;19.90;58.00
29775;DHT22;16676;51.202;6.774;2022-09-30T02:30:49;19.80;58.00
29775;DHT22;16676;51.202;6.774;2022-09-30T02:34:55;19.80;58.00
29775;DHT22;16676;51.202;6.774;2022-09-30T02:39:03;19.80;57.90
29775;DHT22;16676;51.202;6.774;2022-09-30T02:43:07;19.80;58.00
29775;DHT22;16676;51.202;6.774;2022-09-30T02:47:13;19.80;58.00
29775;DHT22;16676;51.202;6.774;2022-09-30T02:51:20;19.80;58.00
29775;DHT22;16676;51.202;6.774;2022-09-30T02:55:27;19.80;58.00
29775;DHT22;16676;51.202;6.774;2022-09-30T02:59:31;19.80;58.00
29775;DHT22;16676;51.202;6.774;2022-09-30T03:03:36;19.70;58.00
29775;DHT22;16676;51.202;6.774;2022-09-30T03:07:40;19.70;57.90
29775;DHT22;16676;51.202;6.774;2022-09-30T03:11:44;19.70;57.90
29775;DHT22;16676;51.202;6.774;2022-09-30T03:16:01;19.70;58.00
29775;DHT22;16676;51.202;6.774;2022-09-30T03:20:25;19.70;57.90
29775;DHT22;16676;51.202;6.774;2022-09-30T03:24:47;19.70;58.00
29775;DHT22;16676;51.202;6.774;2022-09-30T03:29:03;19.70;58.10
29775;DHT22;16676;51.202;6.774;2022-09-30T03:33:08;19.70;58.00
29775;DHT22;16676;51.202;6.774;2022-09-30T03:37:16;19.70;58.10
29775;DHT22;16676;51.202;6.774;2022-09-30T03:41:24;19.70;58.00
29775;DHT22;16676;51.202;6.774;2022-09-30T03:45:30;19.70;58.00
29775;DHT22;16676;51.202;6.774;2022-09-30T03:49:37;19.70;58.10
29775;DHT22;16676;51.202;6.774;2022-09-30T03:53:41;19.60;58.20
29775;DHT22;16676;51.202;6.774;2022-09-30T03:57:43;19.60;58.00
29775;DHT22;16676;51.202;6.774;2022-09-30T04:01:47;19.60;58.10
29775;DHT22;16676;51.202;6.774;2022-09-30T04:05:49;19.60;58.20
29775;DHT22;16676;51.202;6.774;2022-09-30T04:09:51;19.60;58.10
29775;DHT22;16676;51.202;6.774;2022-09-30T04:13:52;19.60;58.10
29775;DHT22;16676;51.202;6.774;2022-09-30T04:17:57;19.60;58.10
29775;DHT22;16676;51.202;6.774;2022-09-30T04:21:58;19.60;58.20
29775;DHT22;16676;51.202;6.774;2022-09-30T04:26:00;19.50;58.10
29775;DHT22;16676;51.202;6.774;2022-09-30T04:30:03;19.50;58.10
29775;DHT22;16676;51.202;6.774;2022-09-30T04:34:06;19.50;58.10
29775;DHT22;16676;51.202;6.774;2022-09-30T04:38:10;19.60;58.10
29775;DHT22;16676;51.202;6.774;2022-09-30T04:42:11;19.50;58.10
29775;DHT22;16676;51.202;6.774;2022-09-30T04:46:13;19.50;58.00
29775;DHT22;16676;51.202;6.774;2022-09-30T04:50:18;19.50;58.10
29775;DHT22;16676;51.202;6.774;2022-09-30T04:54:20;19.50;58.10
29775;DHT22;16676;51.202;6.774;2022-09-30T04:58:22;19.50;58.00
29775;DHT22;16676;51.202;6.774;2022-09-30T05:02:24;19.50;58.10
29775;DHT22;16676;51.202;6.774;2022-09-30T05:06:27;19.50;58.10
29775;DHT22;16676;51.202;6.774;2022-09-30T05:10:29;19.50;58.20
29775;DHT22;16676;51.202;6.774;2022-09-30T05:14:31;19.50;58.20
29775;DHT22;16676;51.202;6.774;2022-09-30T05:18:34;19.50;58.20
29775;DHT22;16676;51.202;6.774;2022-09-30T05:22:38;19.40;58.10
29775;DHT22;16676;51.202;6.774;2022-09-30T05:26:40;19.50;58.10
29775;DHT22;16676;51.202;6.774;2022-09-30T05:30:42;19.50;58.10
29775;DHT22;16676;51.202;6.774;2022-09-30T05:34:45;19.50;58.10
29775;DHT22;16676;51.202;6.774;2022-09-30T05:38:50;19.50;58.10
29775;DHT22;16676;51.202;6.774;2022-09-30T05:42:55;19.40;58.00
29775;DHT22;16676;51.202;6.774;2022-09-30T05:46:57;19.40;58.00
29775;DHT22;16676;51.202;6.774;2022-09-30T05:50:59;19.40;58.00
29775;DHT22;16676;51.202;6.774;2022-09-30T05:55:03;19.40;58.00
29775;DHT22;16676;51.202;6.774;2022-09-30T05:59:06;19.40;57.90
29775;DHT22;16676;51.202;6.774;2022-09-30T06:03:08;19.40;57.90
29775;DHT22;16676;51.202;6.774;2022-09-30T06:07:10;19.50;57.90
29775;DHT22;16676;51.202;6.774;2022-09-30T06:11:16;19.50;57.90
29775;DHT22;16676;51.202;6.774;2022-09-30T06:15:18;19.50;57.70
29775;DHT22;16676;51.202;6.774;2022-09-30T06:19:20;19.50;57.50
29775;DHT22;16676;51.202;6.774;2022-09-30T06:23:22;19.50;56.80
29775;DHT22;16676;51.202;6.774;2022-09-30T06:27:25;19.40;55.20
29775;DHT22;16676;51.202;6.774;2022-09-30T06:31:27;19.30;54.50
29775;DHT22;16676;51.202;6.774;2022-09-30T06:35:30;19.40;54.50
29775;DHT22;16676;51.202;6.774;2022-09-30T06:39:32;19.50;53.90
29775;DHT22;16676;51.202;6.774;2022-09-30T06:43:35;19.60;54.10
29775;DHT22;16676;51.202;6.774;2022-09-30T06:47:37;20.00;52.50
29775;DHT22;16676;51.202;6.774;2022-09-30T06:51:39;20.40;51.10
29775;DHT22;16676;51.202;6.774;2022-09-30T06:55:41;20.80;50.00
29775;DHT22;16676;51.202;6.774;2022-09-30T06:59:45;21.10;49.50
29775;DHT22;16676;51.202;6.774;2022-09-30T07:03:47;21.30;48.60
29775;DHT22;16676;51.202;6.774;2022-09-30T07:07:49;21.40;48.20
29775;DHT22;16676;51.202;6.774;2022-09-30T07:11:51;21.40;47.90
29775;DHT22;16676;51.202;6.774;2022-09-30T07:15:55;21.60;47.80
29775;DHT22;16676;51.202;6.774;2022-09-30T07:19:57;21.40;47.90
29775;DHT22;16676;51.202;6.774;2022-09-30T07:23:59;21.30;48.10
29775;DHT22;16676;51.202;6.774;2022-09-30T07:28:01;20.90;48.80
29775;DHT22;16676;51.202;6.774;2022-09-30T07:32:05;20.60;49.60
29775;DHT22;16676;51.202;6.774;2022-09-30T07:36:07;20.40;50.10
29775;DHT22;16676;51.202;6.774;2022-09-30T07:40:10;20.30;50.30
29775;DHT22;16676;51.202;6.774;2022-09-30T07:44:12;20.10;50.70
29775;DHT22;16676;51.202;6.774;2022-09-30T07:48:16;20.10;51.00
29775;DHT22;16676;51.202;6.774;2022-09-30T07:52:32;20.00;51.30
29775;DHT22;16676;51.202;6.774;2022-09-30T07:56:35;20.00;52.20
29775;DHT22;16676;51.202;6.774;2022-09-30T08:00:38;20.10;51.80
29775;DHT22;16676;51.202;6.774;2022-09-30T08:04:41;20.00;52.40
29775;DHT22;16676;51.202;6.774;2022-09-30T08:08:44;20.10;52.50
29775;DHT22;16676;51.202;6.774;2022-09-30T08:12:47;20.00;52.40
29775;DHT22;16676;51.202;6.774;2022-09-30T08:16:49;20.00;52.40
29775;DHT22;16676;51.202;6.774;2022-09-30T08:20:53;19.90;52.50
29775;DHT22;16676;51.202;6.774;2022-09-30T08:24:54;19.90;52.70
29775;DHT22;16676;51.202;6.774;2022-09-30T08:28:56;19.80;53.00
29775;DHT22;16676;51.202;6.774;2022-09-30T08:32:58;19.80;53.20
29775;DHT22;16676;51.202;6.774;2022-09-30T08:37:02;19.90;53.70
29775;DHT22;16676;51.202;6.774;2022-09-30T08:41:16;19.90;54.00
29775;DHT22;16676;51.202;6.774;2022-09-30T08:45:36;20.00;54.20
29775;DHT22;16676;51.202;6.774;2022-09-30T08:49:48;20.00;54.20
29775;DHT22;16676;51.202;6.774;2022-09-30T08:53:54;20.10;54.30
29775;DHT22;16676;51.202;6.774;2022-09-30T08:57:56;20.20;54.40
29775;DHT22;16676;51.202;6.774;2022-09-30T09:02:03;20.20;54.50
29775;DHT22;16676;51.202;6.774;2022-09-30T09:06:19;20.30;54.40
29775;DHT22;16676;51.202;6.774;2022-09-30T09:10:29;20.30;54.40
29775;DHT22;16676;51.202;6.774;2022-09-30T09:14:44;20.40;54.50
29775;DHT22;16676;51.202;6.774;2022-09-30T09:18:58;20.40;54.40
29775;DHT22;16676;51.202;6.774;2022-09-30T09:23:02;20.40;54.50
29775;DHT22;16676;51.202;6.774;2022-09-30T09:27:18;20.40;54.60
29775;DHT22;16676;51.202;6.774;2022-09-30T09:31:20;20.50;54.60
29775;DHT22;16676;51.202;6.774;2022-09-30T09:35:32;20.50;54.60
29775;DHT22;16676;51.202;6.774;2022-09-30T09:40:02;20.50;54.70
29775;DHT22;16676;51.202;6.774;2022-09-30T09:44:13;20.60;54.70
29775;DHT22;16676;51.202;6.774;2022-09-30T09:48:18;20.60;54.70
29775;DHT22;16676;51.202;6.774;2022-09-30T09:52:48;20.60;54.60
29775;DHT22;16676;51.202;6.774;2022-09-30T09:56:54;20.60;54.80
29775;DHT22;16676;51.202;6.774;2022-09-30T10:01:10;20.60;54.70
29775;DHT22;16676;51.202;6.774;2022-09-30T10:05:32;20.60;54.70
29775;DHT22;16676;51.202;6.774;2022-09-30T10:09:40;20.60;54.90
29775;DHT22;16676;51.202;6.774;2022-09-30T10:13:44;20.60;55.00
29775;DHT22;16676;51.202;6.774;2022-09-30T10:17:52;20.60;55.00
29775;DHT22;16676;51.202;6.774;2022-09-30T10:22:17;20.60;55.00
29775;DHT22;16676;51.202;6.774;2022-09-30T10:26:21;20.60;55.00
29775;DHT22;16676;51.202;6.774;2022-09-30T10:30:39;20.70;55.00
29775;DHT22;16676;51.202;6.774;2022-09-30T10:34:43;20.60;55.10
29775;DHT22;16676;51.202;6.774;2022-09-30T10:38:52;20.60;55.20
29775;DHT22;16676;51.202;6.774;2022-09-30T10:42:57;20.60;55.30
29775;DHT22;16676;51.202;6.774;2022-09-30T10:47:01;20.60;55.30
29775;DHT22;16676;51.202;6.774;2022-09-30T10:51:20;20.60;55.30
29775;DHT22;16676;51.202;6.774;2022-09-30T10:55:31;20.70;55.40
29775;DHT22;16676;51.202;6.774;2022-09-30T10:59:36;20.70;55.30
29775;DHT22;16676;51.202;6.774;2022-09-30T11:03:45;20.70;55.20
29775;DHT22;16676;51.202;6.774;2022-09-30T11:07:52;20.70;55.30
29775;DHT22;16676;51.202;6.774;2022-09-30T11:11:58;20.70;55.30
29775;DHT22;16676;51.202;6.774;2022-09-30T11:16:04;20.70;55.30
29775;DHT22;16676;51.202;6.774;2022-09-30T11:20:17;20.80;55.20
29775;DHT22;16676;51.202;6.774;2022-09-30T11:24:27;20.90;55.10
29775;DHT22;16676;51.202;6.774;2022-09-30T11:28:45;20.90;55.20
29775;DHT22;16676;51.202;6.774;2022-09-30T11:33:08;20.90;55.20
29775;DHT22;16676;51.202;6.774;2022-09-30T11:37:19;20.90;55.90
29775;DHT22;16676;51.202;6.774;2022-09-30T11:41:29;20.90;55.30
29775;DHT22;16676;51.202;6.774;2022-09-30T11:45:43;20.90;55.10
29775;DHT22;16676;51.202;6.774;2022-09-30T11:54:26;20.90;55.30
29775;DHT22;16676;51.202;6.774;2022-09-30T11:58:38;20.90;55.20
29775;DHT22;16676;51.202;6.774;2022-09-30T12:02:43;21.00;55.20
29775;DHT22;16676;51.202;6.774;2022-09-30T12:06:49;21.00;55.10
29775;DHT22;16676;51.202;6.774;2022-09-30T12:10:54;21.00;55.20
29775;DHT22;16676;51.202;6.774;2022-09-30T12:15:01;20.90;55.20
29775;DHT22;16676;51.202;6.774;2022-09-30T12:19:14;20.90;55.30
29775;DHT22;16676;51.202;6.774;2022-09-30T12:23:19;20.90;55.50
29775;DHT22;16676;51.202;6.774;2022-09-30T12:27:26;21.00;55.30
29775;DHT22;16676;51.202;6.774;2022-09-30T12:31:50;21.00;55.20
29775;DHT22;16676;51.202;6.774;2022-09-30T12:36:33;21.10;55.20
29775;DHT22;16676;51.202;6.774;2022-09-30T12:41:01;21.10;55.10
29775;DHT22;16676;51.202;6.774;2022-09-30T12:45:34;21.10;55.00
29775;DHT22;16676;51.202;6.774;2022-09-30T12:49:42;21.10;55.00
29775;DHT22;16676;51.202;6.774;2022-09-30T12:53:49;21.20;54.90
29775;DHT22;16676;51.202;6.774;2022-09-30T12:57:52;21.10;55.10
29775;DHT22;16676;51.202;6.774;2022-09-30T13:01:55;21.10;55.20
29775;DHT22;16676;51.202;6.774;2022-09-30T13:06:02;21.00;55.30
29775;DHT22;16676;51.202;6.774;2022-09-30T13:10:25;21.00;55.30
29775;DHT22;16676;51.202;6.774;2022-09-30T13:14:32;21.00;55.30
29775;DHT22;16676;51.202;6.774;2022-09-30T13:19:16;21.00;55.40
29775;DHT22;16676;51.202;6.774;2022-09-30T13:23:36;21.10;55.40
29775;DHT22;16676;51.202;6.774;2022-09-30T13:27:40;21.10;55.40
29775;DHT22;16676;51.202;6.774;2022-09-30T13:32:02;21.10;55.30
29775;DHT22;16676;51.202;6.774;2022-09-30T13:36:06;21.10;55.30
29775;DHT22;16676;51.202;6.774;2022-09-30T13:40:24;21.20;55.30
29775;DHT22;16676;51.202;6.774;2022-09-30T13:44:36;21.10;55.20
29775;DHT22;16676;51.202;6.774;2022-09-30T13:48:43;21.20;55.20
29775;DHT22;16676;51.202;6.774;2022-09-30T13:52:52;21.20;55.10
29775;DHT22;16676;51.202;6.774;2022-09-30T13:56:58;21.20;55.20
29775;DHT22;16676;51.202;6.774;2022-09-30T14:01:06;21.20;55.20
29775;DHT22;16676;51.202;6.774;2022-09-30T14:05:33;21.20;55.20
29775;DHT22;16676;51.202;6.774;2022-09-30T14:09:54;21.20;55.20
29775;DHT22;16676;51.202;6.774;2022-09-30T14:14:14;21.20;55.20
29775;DHT22;16676;51.202;6.774;2022-09-30T14:18:38;21.20;55.20
29775;DHT22;16676;51.202;6.774;2022-09-30T14:22:45;21.20;55.20
29775;DHT22;16676;51.202;6.774;2022-09-30T14:26:56;21.20;55.20
29775;DHT22;16676;51.202;6.774;2022-09-30T14:31:02;21.20;55.20
29775;DHT22;16676;51.202;6.774;2022-09-30T14:35:15;21.20;55.20
29775;DHT22;16676;51.202;6.774;2022-09-30T14:39:21;21.20;55.20
29775;DHT22;16676;51.202;6.774;2022-09-30T14:43:26;21.30;55.10
29775;DHT22;16676;51.202;6.774;2022-09-30T14:47:36;21.30;55.20
29775;DHT22;16676;51.202;6.774;2022-09-30T14:51:41;21.30;55.10
29775;DHT22;16676;51.202;6.774;2022-09-30T14:55:48;21.30;55.10
29775;DHT22;16676;51.202;6.774;2022-09-30T14:59:50;21.20;55.20
29775;DHT22;16676;51.202;6.774;2022-09-30T15:03:55;21.20;54.80
29775;DHT22;16676;51.202;6.774;2022-09-30T15:07:59;21.20;54.80
29775;DHT22;16676;51.202;6.774;2022-09-30T15:12:05;21.20;54.70
29775;DHT22;16676;51.202;6.774;2022-09-30T15:16:21;21.20;54.60
29775;DHT22;16676;51.202;6.774;2022-09-30T15:20:30;21.20;54.60
29775;DHT22;16676;51.202;6.774;2022-09-30T15:24:34;21.10;54.50
29775;DHT22;16676;51.202;6.774;2022-09-30T15:28:36;21.10;54.50
29775;DHT22;16676;51.202;6.774;2022-09-30T15:32:39;21.10;54.40
29775;DHT22;16676;51.202;6.774;2022-09-30T15:36:44;21.10;54.30
29775;DHT22;16676;51.202;6.774;2022-09-30T15:40:52;21.10;54.90
29775;DHT22;16676;51.202;6.774;2022-09-30T15:44:58;21.10;54.20
29775;DHT22;16676;51.202;6.774;2022-09-30T15:49:02;21.10;54.30
29775;DHT22;16676;51.202;6.774;2022-09-30T15:53:14;21.10;54.20
29775;DHT22;16676;51.202;6.774;2022-09-30T15:57:44;21.00;54.10
29775;DHT22;16676;51.202;6.774;2022-09-30T16:01:48;21.00;54.10
29775;DHT22;16676;51.202;6.774;2022-09-30T16:05:52;21.00;54.10
29775;DHT22;16676;51.202;6.774;2022-09-30T16:09:56;21.00;54.10
29775;DHT22;16676;51.202;6.774;2022-09-30T16:13:59;21.00;54.10
29775;DHT22;16676;51.202;6.774;2022-09-30T16:18:02;21.00;54.10
29775;DHT22;16676;51.202;6.774;2022-09-30T16:22:18;20.90;53.90
29775;DHT22;16676;51.202;6.774;2022-09-30T16:26:35;21.00;54.10
29775;DHT22;16676;51.202;6.774;2022-09-30T16:30:40;20.90;54.10
29775;DHT22;16676;51.202;6.774;2022-09-30T16:34:43;20.90;54.10
29775;DHT22;16676;51.202;6.774;2022-09-30T16:38:45;20.90;54.20
29775;DHT22;16676;51.202;6.774;2022-09-30T16:42:49;20.90;54.30
29775;DHT22;16676;51.202;6.774;2022-09-30T16:46:51;20.90;54.30
29775;DHT22;16676;51.202;6.774;2022-09-30T16:50:59;20.90;54.40
29775;DHT22;16676;51.202;6.774;2022-09-30T16:55:03;20.90;54.40
29775;DHT22;16676;51.202;6.774;2022-09-30T16:59:11;20.90;54.50
29775;DHT22;16676;51.202;6.774;2022-09-30T17:03:15;20.90;54.60
29775;DHT22;16676;51.202;6.774;2022-09-30T17:07:17;20.80;54.70
29775;DHT22;16676;51.202;6.774;2022-09-30T17:11:22;20.90;54.70
29775;DHT22;16676;51.202;6.774;2022-09-30T17:15:28;20.80;54.70
29775;DHT22;16676;51.202;6.774;2022-09-30T17:19:30;20.90;54.80
29775;DHT22;16676;51.202;6.774;2022-09-30T17:23:35;20.80;54.80
29775;DHT22;16676;51.202;6.774;2022-09-30T17:27:37;20.80;54.80
29775;DHT22;16676;51.202;6.774;2022-09-30T17:31:41;20.80;54.80
29775;DHT22;16676;51.202;6.774;2022-09-30T17:35:43;20.90;54.90
29775;DHT22;16676;51.202;6.774;2022-09-30T17:39:45;20.80;54.90
29775;DHT22;16676;51.202;6.774;2022-09-30T17:43:46;20.80;55.50
29775;DHT22;16676;51.202;6.774;2022-09-30T17:47:50;20.80;55.00
29775;DHT22;16676;51.202;6.774;2022-09-30T17:51:52;20.80;55.00
29775;DHT22;16676;51.202;6.774;2022-09-30T17:56:00;20.80;55.10
29775;DHT22;16676;51.202;6.774;2022-09-30T18:00:03;20.80;55.10
29775;DHT22;16676;51.202;6.774;2022-09-30T18:04:06;20.80;55.10
29775;DHT22;16676;51.202;6.774;2022-09-30T18:08:10;20.80;55.20
29775;DHT22;16676;51.202;6.774;2022-09-30T18:12:12;20.80;55.10
29775;DHT22;16676;51.202;6.774;2022-09-30T18:16:15;20.80;55.30
29775;DHT22;16676;51.202;6.774;2022-09-30T18:20:18;20.80;55.60
29775;DHT22;16676;51.202;6.774;2022-09-30T18:24:20;20.80;55.70
29775;DHT22;16676;51.202;6.774;2022-09-30T18:28:42;20.80;56.30
29775;DHT22;16676;51.202;6.774;2022-09-30T18:32:46;20.80;56.10
29775;DHT22;16676;51.202;6.774;2022-09-30T18:36:50;20.80;56.80
29775;DHT22;16676;51.202;6.774;2022-09-30T18:40:52;20.80;57.10
29775;DHT22;16676;51.202;6.774;2022-09-30T18:44:54;20.80;57.90
29775;DHT22;16676;51.202;6.774;2022-09-30T18:48:56;20.80;57.70
29775;DHT22;16676;51.202;6.774;2022-09-30T18:52:59;20.80;57.70
29775;DHT22;16676;51.202;6.774;2022-09-30T18:57:08;20.80;57.80
29775;DHT22;16676;51.202;6.774;2022-09-30T19:01:09;20.80;57.90
29775;DHT22;16676;51.202;6.774;2022-09-30T19:05:13;20.80;58.20
29775;DHT22;16676;51.202;6.774;2022-09-30T19:09:17;20.80;58.20
29775;DHT22;16676;51.202;6.774;2022-09-30T19:13:19;20.80;58.10
29775;DHT22;16676;51.202;6.774;2022-09-30T19:17:23;20.80;58.10
29775;DHT22;16676;51.202;6.774;2022-09-30T19:21:26;20.80;58.40
29775;DHT22;16676;51.202;6.774;2022-09-30T19:25:29;20.80;58.10
29775;DHT22;16676;51.202;6.774;2022-09-30T19:29:31;20.80;58.10
29775;DHT22;16676;51.202;6.774;2022-09-30T19:33:34;20.80;58.10
29775;DHT22;16676;51.202;6.774;2022-09-30T19:37:37;20.80;58.10
29775;DHT22;16676;51.202;6.774;2022-09-30T19:41:41;20.80;58.10
29775;DHT22;16676;51.202;6.774;2022-09-30T19:45:53;20.70;58.50
29775;DHT22;16676;51.202;6.774;2022-09-30T19:49:55;20.70;58.10
29775;DHT22;16676;51.202;6.774;2022-09-30T19:53:59;20.70;58.50
29775;DHT22;16676;51.202;6.774;2022-09-30T19:58:02;20.70;57.90
29775;DHT22;16676;51.202;6.774;2022-09-30T20:02:05;20.70;58.60
29775;DHT22;16676;51.202;6.774;2022-09-30T20:06:09;20.70;57.90
29775;DHT22;16676;51.202;6.774;2022-09-30T20:10:12;20.70;58.20
29775;DHT22;16676;51.202;6.774;2022-09-30T20:14:16;20.60;58.00
29775;DHT22;16676;51.202;6.774;2022-09-30T20:18:36;20.70;58.20
29775;DHT22;16676;51.202;6.774;2022-09-30T20:22:38;20.60;58.10
29775;DHT22;16676;51.202;6.774;2022-09-30T20:26:42;20.70;58.20
29775;DHT22;16676;51.202;6.774;2022-09-30T20:30:46;20.70;58.30
29775;DHT22;16676;51.202;6.774;2022-09-30T20:34:48;20.70;58.50
29775;DHT22;16676;51.202;6.774;2022-09-30T20:38:51;20.70;58.40
29775;DHT22;16676;51.202;6.774;2022-09-30T20:42:53;20.70;58.20
29775;DHT22;16676;51.202;6.774;2022-09-30T20:47:04;20.70;58.40
29775;DHT22;16676;51.202;6.774;2022-09-30T20:51:07;20.70;57.90
29775;DHT22;16676;51.202;6.774;2022-09-30T20:55:09;20.70;57.90
29775;DHT22;16676;51.202;6.774;2022-09-30T20:59:11;20.70;58.10
29775;DHT22;16676;51.202;6.774;2022-09-30T21:03:15;20.70;58.10
29775;DHT22;16676;51.202;6.774;2022-09-30T21:07:17;20.70;58.00
29775;DHT22;16676;51.202;6.774;2022-09-30T21:11:20;20.70;58.10
29775;DHT22;16676;51.202;6.774;2022-09-30T21:15:23;20.60;58.00
29775;DHT22;16676;51.202;6.774;2022-09-30T21:19:26;20.60;57.80
29775;DHT22;16676;51.202;6.774;2022-09-30T21:23:30;20.60;58.00
29775;DHT22;16676;51.202;6.774;2022-09-30T21:27:32;20.60;58.00
29775;DHT22;16676;51.202;6.774;2022-09-30T21:31:34;20.60;58.00
29775;DHT22;16676;51.202;6.774;2022-09-30T21:35:38;20.60;58.00
29775;DHT22;16676;51.202;6.774;2022-09-30T21:39:40;20.60;58.00
29775;DHT22;16676;51.202;6.774;2022-09-30T21:43:43;20.50;57.90
29775;DHT22;16676;51.202;6.774;2022-09-30T21:47:45;20.50;57.90
29775;DHT22;16676;51.202;6.774;2022-09-30T21:51:49;20.50;57.80
29775;DHT22;16676;51.202;6.774;2022-09-30T21:55:52;20.50;57.90
29775;DHT22;16676;51.202;6.774;2022-09-30T21:59:55;20.50;57.80
29775;DHT22;16676;51.202;6.774;2022-09-30T22:03:57;20.50;57.70
29775;DHT22;16676;51.202;6.774;2022-09-30T22:08:01;20.50;57.60
29775;DHT22;16676;51.202;6.774;2022-09-30T22:12:03;20.50;57.70
29775;DHT22;16676;51.202;6.774;2022-09-30T22:16:08;20.50;57.80
29775;DHT22;16676;51.202;6.774;2022-09-30T22:20:10;20.50;57.60
29775;DHT22;16676;51.202;6.774;2022-09-30T22:24:14;20.40;57.80
29775;DHT22;16676;51.202;6.774;2022-09-30T22:28:16;20.50;57.70
29775;DHT22;16676;51.202;6.774;2022-09-30T22:32:18;20.40;57.70
29775;DHT22;16676;51.202;6.774;2022-09-30T22:36:20;20.40;57.70
29775;DHT22;16676;51.202;6.774;2022-09-30T22:40:41;20.40;57.70
29775;DHT22;16676;51.202;6.774;2022-09-30T22:44:43;20.40;57.60
29775;DHT22;16676;51.202;6.774;2022-09-30T22:48:45;20.40;57.80
29775;DHT22;16676;51.202;6.774;2022-09-30T22:52:48;20.40;57.50
29775;DHT22;16676;51.202;6.774;2022-09-30T22:56:51;20.40;57.60
29775;DHT22;16676;51.202;6.774;2022-09-30T23:00:56;20.40;57.50
29775;DHT22;16676;51.202;6.774;2022-09-30T23:04:58;20.40;57.70
29775;DHT22;16676;51.202;6.774;2022-09-30T23:09:02;20.40;57.60
29775;DHT22;16676;51.202;6.774;2022-09-30T23:13:06;20.30;57.50
29775;DHT22;16676;51.202;6.774;2022-09-30T23:17:09;20.40;57.50
29775;DHT22;16676;51.202;6.774;2022-09-30T23:21:14;20.30;57.40
29775;DHT22;16676;51.202;6.774;2022-09-30T23:25:16;20.40;57.60
29775;DHT22;16676;51.202;6.774;2022-09-30T23:29:19;20.40;57.50
29775;DHT22;16676;51.202;6.774;2022-09-30T23:33:22;20.30;57.50
29775;DHT22;16676;51.202;6.774;2022-09-30T23:37:24;20.30;57.40
29775;DHT22;16676;51.202;6.774;2022-09-30T23:41:26;20.30;57.50
29775;DHT22;16676;51.202;6.774;2022-09-30T23:45:29;20.30;57.30
29775;DHT22;16676;51.202;6.774;2022-09-30T23:49:31;20.30;57.30
29775;DHT22;16676;51.202;6.774;2022-09-30T23:53:34;20.30;57.60
29775;DHT22;16676;51.202;6.774;2022-09-30T23:57:37;20.30;57.50
